Time;durP1;ratioP1;P1;durP2;ratioP2;P2;SDS_P1;SDS_P2;PMS_P1;PMS_P2;Temp;Humidity;BMP_temperature;BMP_pressure;BME280_temperature;BME280_humidity;BME280_pressure;Samples;Min_cycle;Max_cycle;Signal;HPM_P1;HPM_P2
2022/05/19 00:00:35;;;;;;;2.67;1.67;;;17.30;99.50;;;;;;5112164;28;20024;-79
2022/05/19 00:03:01;;;;;;;3.40;1.88;;;17.20;99.50;;;;;;5112790;28;20027;-79
2022/05/19 00:05:27;;;;;;;2.47;1.90;;;17.20;99.70;;;;;;5102955;28;20115;-79
2022/05/19 00:07:53;;;;;;;3.85;1.88;;;17.10;99.80;;;;;;5091906;28;20062;-79
2022/05/19 00:10:19;;;;;;;2.08;1.83;;;17.10;99.90;;;;;;5092019;28;20032;-79
2022/05/19 00:12:45;;;;;;;5.57;1.77;;;17.10;99.90;;;;;;5090632;28;20098;-79
2022/05/19 00:15:12;;;;;;;1.80;1.70;;;17.00;99.90;;;;;;5111302;28;20464;-78
2022/05/19 00:17:42;;;;;;;3.65;1.95;;;17.00;99.90;;;;;;5112299;28;20016;-79
2022/05/19 00:20:08;;;;;;;2.33;1.90;;;16.90;99.90;;;;;;5116567;28;20027;-78
2022/05/19 00:22:35;;;;;;;2.03;1.40;;;16.80;99.90;;;;;;5114959;28;20384;-79
2022/05/19 00:25:01;;;;;;;5.53;1.70;;;16.80;99.90;;;;;;5097489;28;20035;-80
2022/05/19 00:27:26;;;;;;;2.40;1.85;;;16.80;99.90;;;;;;5095308;28;20365;-80
2022/05/19 00:29:52;;;;;;;2.97;2.03;;;16.70;99.90;;;;;;5095043;28;20378;-80
2022/05/19 00:32:17;;;;;;;1.95;1.70;;;16.70;99.90;;;;;;5095387;28;20454;-80
2022/05/19 00:34:43;;;;;;;3.13;2.03;;;16.70;99.90;;;;;;5109962;28;20028;-79
2022/05/19 00:37:09;;;;;;;3.13;1.70;;;16.60;99.90;;;;;;5097326;28;20024;-79
2022/05/19 00:39:35;;;;;;;2.80;1.88;;;16.60;99.90;;;;;;5114844;28;20388;-79
2022/05/19 00:44:45;;;;;;;4.32;2.05;;;16.50;99.90;;;;;;5094738;28;20071;-78
2022/05/19 00:47:21;;;;;;;2.92;2.58;;;16.50;99.90;;;;;;5094972;28;20068;-79
2022/05/19 00:49:48;;;;;;;4.07;2.10;;;16.50;99.90;;;;;;5094185;28;20674;-79
2022/05/19 00:52:30;;;;;;;2.15;1.80;;;16.40;99.90;;;;;;5103098;28;20023;-78
2022/05/19 00:55:09;;;;;;;2.45;1.60;;;16.40;99.90;;;;;;5097089;28;20385;-78
2022/05/19 00:57:45;;;;;;;5.82;1.90;;;16.40;99.90;;;;;;5099187;28;20042;-79
2022/05/19 01:00:15;;;;;;;2.30;1.75;;;16.40;99.90;;;;;;5086822;28;20032;-78
2022/05/19 01:02:46;;;;;;;2.20;1.98;;;16.30;99.90;;;;;;5102291;28;20027;-77
2022/05/19 01:05:27;;;;;;;2.50;1.90;;;16.30;99.90;;;;;;5103643;28;20422;-79
2022/05/19 01:08:16;;;;;;;3.33;2.22;;;16.30;99.90;;;;;;5105284;28;20026;-79
2022/05/19 01:10:44;;;;;;;3.03;2.10;;;16.30;99.90;;;;;;5080371;28;20400;-79
2022/05/19 01:13:12;;;;;;;2.85;1.80;;;16.20;99.90;;;;;;5103835;28;20032;-79
2022/05/19 01:15:45;;;;;;;2.92;1.95;;;16.20;99.90;;;;;;5083887;28;20504;-79
2022/05/19 01:18:14;;;;;;;4.05;2.08;;;16.20;99.90;;;;;;5103537;28;20026;-80
2022/05/19 01:20:42;;;;;;;3.67;2.08;;;16.20;99.90;;;;;;5085891;28;20016;-78
2022/05/19 01:23:39;;;;;;;2.58;2.10;;;16.20;99.90;;;;;;5103767;28;20468;-80
2022/05/19 01:26:27;;;;;;;2.30;1.75;;;16.20;99.90;;;;;;5105367;28;20019;-78
2022/05/19 01:28:55;;;;;;;2.08;1.73;;;16.20;99.90;;;;;;5105828;28;20020;-78
2022/05/19 01:31:27;;;;;;;2.15;1.95;;;16.10;99.90;;;;;;5104419;28;20162;-78
2022/05/19 01:33:53;;;;;;;2.15;1.70;;;16.10;99.90;;;;;;5102466;28;20027;-79
2022/05/19 01:36:18;;;;;;;2.72;1.73;;;16.00;99.90;;;;;;5103720;28;20020;-79
2022/05/19 01:38:44;;;;;;;2.20;1.98;;;16.00;99.90;;;;;;5101755;28;20031;-79
2022/05/19 01:41:22;;;;;;;4.68;2.35;;;16.00;99.90;;;;;;5102551;28;20426;-79
2022/05/19 01:43:47;;;;;;;2.42;1.90;;;15.90;99.90;;;;;;5101194;28;20652;-79
2022/05/19 01:46:24;;;;;;;3.38;2.25;;;15.90;99.90;;;;;;5085353;28;20034;-79
2022/05/19 01:49:00;;;;;;;4.32;1.77;;;15.90;99.90;;;;;;5108566;28;20031;-79
2022/05/19 01:51:33;;;;;;;2.17;1.75;;;15.90;99.90;;;;;;5096138;28;20046;-80
2022/05/19 01:54:14;;;;;;;2.20;2.00;;;15.80;99.90;;;;;;5103840;28;20023;-79
2022/05/19 01:57:09;;;;;;;3.22;1.95;;;15.80;99.90;;;;;;5113343;28;20038;-79
2022/05/19 01:59:55;;;;;;;3.40;2.10;;;15.80;99.90;;;;;;5104400;28;20047;-80
2022/05/19 02:02:51;;;;;;;3.83;2.00;;;15.70;99.90;;;;;;5089391;28;20051;-80
2022/05/19 02:05:36;;;;;;;2.10;1.95;;;15.70;99.90;;;;;;5093372;28;20036;-79
2022/05/19 02:08:07;;;;;;;2.28;1.42;;;15.60;99.90;;;;;;5093615;28;20028;-77
2022/05/19 02:10:37;;;;;;;2.83;2.00;;;15.60;99.90;;;;;;5074736;28;20081;-77
2022/05/19 02:13:03;;;;;;;2.90;2.00;;;15.50;99.90;;;;;;5105108;28;20053;-80
2022/05/19 02:15:34;;;;;;;3.03;1.70;;;15.50;99.90;;;;;;5113860;28;20027;-80
2022/05/19 02:18:00;;;;;;;1.80;1.67;;;15.40;99.90;;;;;;5113861;28;20099;-80
2022/05/19 02:20:28;;;;;;;3.55;1.63;;;15.40;99.90;;;;;;5113188;28;20111;-79
2022/05/19 02:22:54;;;;;;;5.88;2.05;;;15.40;99.90;;;;;;5113127;28;20031;-80
2022/05/19 02:25:29;;;;;;;2.58;2.38;;;15.40;99.90;;;;;;5113485;28;20039;-79
2022/05/19 02:28:06;;;;;;;3.42;2.28;;;15.40;99.90;;;;;;5112863;28;20111;-80
2022/05/19 02:30:34;;;;;;;4.22;1.90;;;15.30;99.90;;;;;;5108028;28;20051;-80
2022/05/19 02:33:00;;;;;;;2.58;2.13;;;15.30;99.90;;;;;;5074973;28;20420;-79
2022/05/19 02:35:27;;;;;;;2.00;1.80;;;15.30;99.90;;;;;;5093447;28;20027;-79
2022/05/19 02:37:54;;;;;;;1.83;1.67;;;15.20;99.90;;;;;;5092576;28;20475;-78
2022/05/19 02:40:23;;;;;;;4.75;2.33;;;15.20;99.90;;;;;;5095138;28;20117;-79
2022/05/19 02:42:49;;;;;;;4.85;2.40;;;15.10;99.90;;;;;;5112404;28;20038;-80
2022/05/19 02:45:16;;;;;;;2.15;1.90;;;15.10;99.90;;;;;;5113588;28;20031;-80
2022/05/19 02:47:43;;;;;;;4.93;2.15;;;15.10;99.90;;;;;;5112197;28;20024;-80
2022/05/19 02:50:10;;;;;;;4.70;1.55;;;15.10;99.90;;;;;;5097371;28;20032;-79
2022/05/19 02:52:36;;;;;;;3.42;2.00;;;15.10;99.90;;;;;;5092364;28;20058;-80
2022/05/19 02:55:02;;;;;;;2.88;1.67;;;15.00;99.90;;;;;;5111584;28;20023;-80
2022/05/19 02:57:28;;;;;;;4.00;1.90;;;15.00;99.90;;;;;;5112912;28;20499;-78
2022/05/19 02:59:53;;;;;;;1.90;1.40;;;15.00;99.90;;;;;;5111648;28;20126;-79
2022/05/19 03:02:19;;;;;;;2.95;2.08;;;15.00;99.90;;;;;;5113098;28;20016;-79
2022/05/19 03:04:45;;;;;;;2.80;2.10;;;15.00;99.90;;;;;;5112252;28;20024;-79
2022/05/19 03:07:10;;;;;;;6.57;2.10;;;14.90;99.90;;;;;;5112839;28;20529;-77
2022/05/19 03:09:36;;;;;;;5.95;2.17;;;14.90;99.90;;;;;;5101969;28;20062;-78
2022/05/19 03:12:02;;;;;;;2.10;1.77;;;14.90;99.90;;;;;;5092985;28;20369;-77
2022/05/19 03:14:30;;;;;;;1.98;1.70;;;14.90;99.90;;;;;;5092563;28;20027;-78
2022/05/19 03:16:55;;;;;;;3.80;1.80;;;14.80;99.90;;;;;;5091746;28;20028;-78
2022/05/19 03:19:21;;;;;;;2.17;1.83;;;14.80;99.90;;;;;;5099936;28;20027;-77
2022/05/19 03:21:47;;;;;;;2.80;1.77;;;14.80;99.90;;;;;;5111857;28;20024;-78
2022/05/19 03:24:12;;;;;;;3.90;2.15;;;14.80;99.90;;;;;;5112721;28;20034;-78
2022/05/19 03:26:38;;;;;;;4.00;2.05;;;14.70;99.90;;;;;;5111885;28;20472;-77
2022/05/19 03:29:04;;;;;;;3.38;2.20;;;14.70;99.90;;;;;;5107276;28;20111;-77
2022/05/19 03:31:30;;;;;;;3.67;1.80;;;14.70;99.90;;;;;;5092292;28;20389;-77
2022/05/19 03:33:56;;;;;;;2.28;2.08;;;14.60;99.90;;;;;;5073621;28;20795;-77
2022/05/19 03:36:22;;;;;;;3.45;1.90;;;14.60;99.90;;;;;;5092402;28;20031;-76
2022/05/19 03:38:47;;;;;;;2.53;1.90;;;14.60;99.90;;;;;;5091247;28;20043;-77
2022/05/19 03:41:13;;;;;;;2.97;2.40;;;14.50;99.90;;;;;;5091954;28;20052;-77
2022/05/19 03:43:39;;;;;;;5.50;2.22;;;14.50;99.90;;;;;;5098129;28;20103;-78
2022/05/19 03:46:05;;;;;;;2.55;1.90;;;14.50;99.90;;;;;;5112407;28;20028;-77
2022/05/19 03:48:35;;;;;;;4.28;2.67;;;14.50;99.90;;;;;;5107353;28;20032;-77
2022/05/19 03:51:04;;;;;;;;;;;14.50;99.90;;;;;;5092161;28;20042;-78
2022/05/19 03:53:31;;;;;;;4.63;2.13;;;14.50;99.90;;;;;;5100359;28;19914;-77
2022/05/19 03:55:56;;;;;;;3.17;2.50;;;14.50;99.90;;;;;;5115649;28;20757;-75
2022/05/19 03:58:23;;;;;;;2.75;2.10;;;14.60;99.90;;;;;;5116534;28;20110;-75
2022/05/19 04:00:48;;;;;;;1.60;1.50;;;14.60;99.90;;;;;;5115556;28;20023;-76
2022/05/19 04:03:15;;;;;;;2.92;2.00;;;14.60;99.90;;;;;;5116574;28;20042;-75
2022/05/19 04:05:40;;;;;;;4.22;2.05;;;14.70;99.90;;;;;;5115405;28;20042;-77
2022/05/19 04:08:06;;;;;;;3.03;2.22;;;14.70;99.90;;;;;;5114636;28;20389;-77
2022/05/19 04:10:32;;;;;;;2.47;2.20;;;14.70;99.90;;;;;;5095944;28;20028;-77
2022/05/19 04:12:58;;;;;;;2.28;1.90;;;14.70;99.90;;;;;;5094989;28;20085;-76
2022/05/19 04:15:24;;;;;;;3.40;2.28;;;14.80;99.90;;;;;;5095725;28;20028;-77
2022/05/19 04:17:50;;;;;;;6.60;2.58;;;14.80;99.90;;;;;;5095069;28;20111;-78
2022/05/19 04:20:16;;;;;;;4.10;2.10;;;14.90;99.90;;;;;;5114678;28;20150;-78
2022/05/19 04:22:42;;;;;;;3.65;1.90;;;14.90;99.90;;;;;;5114982;28;20023;-78
2022/05/19 04:25:09;;;;;;;2.35;1.75;;;15.00;99.90;;;;;;5115979;28;20102;-78
2022/05/19 04:27:35;;;;;;;2.85;2.05;;;15.00;99.90;;;;;;5105233;28;20046;-78
2022/05/19 04:30:01;;;;;;;2.80;2.00;;;15.10;99.90;;;;;;5094805;28;20417;-77
2022/05/19 04:32:26;;;;;;;2.70;1.85;;;15.10;99.90;;;;;;5077422;28;20350;-77
2022/05/19 04:34:52;;;;;;;2.95;2.00;;;15.20;99.90;;;;;;5094822;28;20461;-78
2022/05/19 04:37:18;;;;;;;2.45;1.90;;;15.30;99.90;;;;;;5102660;28;20457;-77
2022/05/19 04:39:43;;;;;;;2.97;2.65;;;15.30;99.90;;;;;;5114741;28;20103;-77
2022/05/19 04:42:11;;;;;;;3.22;2.17;;;15.40;99.90;;;;;;5116110;28;20023;-77
2022/05/19 04:44:38;;;;;;;2.33;2.05;;;15.60;99.90;;;;;;5115403;28;20495;-78
2022/05/19 04:47:04;;;;;;;2.75;2.28;;;15.70;99.90;;;;;;5114762;28;20391;-76
2022/05/19 04:49:29;;;;;;;2.60;2.13;;;15.80;99.90;;;;;;5116061;28;20076;-77
2022/05/19 04:51:55;;;;;;;2.45;1.48;;;15.90;99.90;;;;;;5114800;28;20102;-78
2022/05/19 04:54:21;;;;;;;3.08;2.00;;;16.00;99.90;;;;;;5097372;28;20444;-78
2022/05/19 04:56:47;;;;;;;2.70;2.00;;;16.10;99.90;;;;;;5097392;28;20591;-78
2022/05/19 04:59:16;;;;;;;3.15;2.00;;;16.20;99.90;;;;;;5095309;28;20103;-78
2022/05/19 05:01:46;;;;;;;2.92;1.80;;;16.30;99.90;;;;;;5076052;28;20032;-78
2022/05/19 05:04:13;;;;;;;3.00;1.70;;;16.40;99.90;;;;;;5094515;28;20392;-74
2022/05/19 05:06:38;;;;;;;3.47;1.98;;;16.50;99.90;;;;;;5109952;28;20039;-78
2022/05/19 05:09:04;;;;;;;2.92;1.75;;;16.60;99.90;;;;;;5114826;28;20024;-76
2022/05/19 05:11:30;;;;;;;6.47;2.13;;;16.80;99.90;;;;;;5115008;28;20031;-78
2022/05/19 05:13:56;;;;;;;2.95;1.98;;;16.90;99.90;;;;;;5108311;28;20031;-77
2022/05/19 05:16:22;;;;;;;5.82;2.22;;;17.10;99.90;;;;;;5096768;28;20028;-75
2022/05/19 05:18:47;;;;;;;2.55;1.92;;;17.20;99.90;;;;;;5098172;28;20075;-76
2022/05/19 05:21:13;;;;;;;4.28;2.17;;;17.40;99.90;;;;;;5099103;28;20107;-77
2022/05/19 05:23:42;;;;;;;2.35;1.70;;;17.50;99.90;;;;;;5104478;28;20027;-78
2022/05/19 05:26:08;;;;;;;5.82;2.40;;;17.60;99.90;;;;;;5095396;28;20036;-75
2022/05/19 05:28:36;;;;;;;2.92;1.92;;;17.70;99.90;;;;;;5113989;28;20525;-74
2022/05/19 05:31:11;;;;;;;5.03;2.00;;;17.80;99.90;;;;;;5095591;28;20551;-75
2022/05/19 05:33:36;;;;;;;4.68;2.40;;;17.90;99.90;;;;;;5095790;28;20036;-73
2022/05/19 05:36:02;;;;;;;4.85;2.45;;;17.90;99.90;;;;;;5113846;28;20032;-74
2022/05/19 05:38:28;;;;;;;3.67;2.10;;;18.00;99.90;;;;;;5114579;28;20445;-72
2022/05/19 05:40:54;;;;;;;8.05;3.35;;;18.00;99.90;;;;;;5112938;28;20445;-73
2022/05/19 05:43:22;;;;;;;3.70;2.20;;;18.10;99.90;;;;;;5099450;28;20040;-74
2022/05/19 05:45:49;;;;;;;2.42;1.90;;;18.20;99.90;;;;;;5093030;28;20047;-75
2022/05/19 05:48:16;;;;;;;6.13;1.90;;;18.30;99.90;;;;;;5076220;28;20024;-76
2022/05/19 05:50:43;;;;;;;8.93;2.80;;;18.40;99.90;;;;;;5093767;28;20024;-76
2022/05/19 05:53:09;;;;;;;6.63;2.15;;;18.50;99.90;;;;;;5104932;28;20027;-75
2022/05/19 05:55:36;;;;;;;3.75;2.13;;;18.60;99.90;;;;;;5114025;28;20093;-74
2022/05/19 05:58:06;;;;;;;2.72;1.80;;;18.70;99.90;;;;;;5084628;28;20020;-79
2022/05/19 06:00:32;;;;;;;;;;;18.90;99.90;;;;;;5094124;28;20028;-75
2022/05/19 06:02:58;;;;;;;4.40;2.10;;;18.90;99.40;;;;;;5093033;28;19904;-79
2022/05/19 06:05:24;;;;;;;4.28;2.00;;;19.10;99.20;;;;;;5113323;28;20031;-84
2022/05/19 06:07:50;;;;;;;3.53;2.20;;;19.20;98.90;;;;;;5112524;28;20080;-86
2022/05/19 06:10:15;;;;;;;2.38;1.73;;;19.30;98.90;;;;;;5102520;28;20028;-83
2022/05/19 06:12:42;;;;;;;7.05;2.08;;;19.40;98.50;;;;;;5101198;28;20028;-80
2022/05/19 06:15:14;;;;;;;3.30;2.03;;;19.50;98.30;;;;;;5102385;28;20042;-85
2022/05/19 06:17:39;;;;;;;3.00;1.77;;;19.60;97.90;;;;;;5102759;28;20028;-84
2022/05/19 06:20:12;;;;;;;4.50;2.17;;;19.70;97.60;;;;;;5103931;28;20031;-77
2022/05/19 06:22:38;;;;;;;2.67;1.73;;;19.80;97.20;;;;;;5104940;28;20027;-83
2022/05/19 06:25:05;;;;;;;7.32;2.83;;;19.90;97.30;;;;;;5102529;28;20027;-83
2022/05/19 06:27:31;;;;;;;3.85;2.15;;;20.00;97.00;;;;;;5104841;28;20035;-82
2022/05/19 06:29:56;;;;;;;7.20;2.17;;;20.10;96.80;;;;;;5102760;28;20020;-84
2022/05/19 06:32:22;;;;;;;4.47;2.15;;;20.20;96.70;;;;;;5104353;28;20102;-85
2022/05/19 06:34:48;;;;;;;4.32;2.35;;;20.40;96.40;;;;;;5103886;28;20032;-85
2022/05/19 06:37:14;;;;;;;5.32;2.10;;;20.40;96.10;;;;;;5109972;28;20024;-86
2022/05/19 06:39:40;;;;;;;5.20;1.85;;;20.50;96.00;;;;;;5105262;28;20111;-82
2022/05/19 06:42:14;;;;;;;2.70;1.98;;;20.70;95.90;;;;;;5109111;28;20489;-85
2022/05/19 06:44:41;;;;;;;5.40;1.80;;;20.80;95.30;;;;;;5103933;28;20377;-80
2022/05/19 06:47:13;;;;;;;8.70;2.42;;;20.90;95.00;;;;;;5098600;28;20036;-90
2022/05/19 06:49:47;;;;;;;5.82;2.20;;;21.00;94.90;;;;;;5092077;28;20031;-82
2022/05/19 06:52:14;;;;;;;6.82;2.92;;;21.10;95.10;;;;;;5095516;28;20081;-81
2022/05/19 06:54:53;;;;;;;3.42;2.15;;;21.30;94.90;;;;;;5092471;28;20060;-79
2022/05/19 06:57:19;;;;;;;3.85;2.20;;;21.40;94.90;;;;;;5095860;28;20047;-80
2022/05/19 06:59:47;;;;;;;7.05;2.65;;;21.50;94.60;;;;;;5099551;28;20027;-81
2022/05/19 07:02:13;;;;;;;7.13;2.15;;;21.60;94.40;;;;;;5092313;28;20056;-80
2022/05/19 07:04:39;;;;;;;7.80;2.60;;;21.80;94.40;;;;;;5096341;28;20573;-80
2022/05/19 07:07:06;;;;;;;4.07;2.88;;;21.90;94.10;;;;;;5104362;28;20103;-83
2022/05/19 07:09:34;;;;;;;4.82;2.15;;;22.00;93.30;;;;;;5114791;28;20027;-81
2022/05/19 07:12:00;;;;;;;5.75;2.05;;;22.20;93.20;;;;;;5094272;28;20028;-79
2022/05/19 07:14:27;;;;;;;5.13;2.35;;;22.30;92.50;;;;;;5097608;28;20364;-79
2022/05/19 07:16:53;;;;;;;3.03;1.90;;;22.40;92.00;;;;;;5114541;28;20032;-81
2022/05/19 07:22:08;;;;;;;5.35;1.98;;;22.60;91.50;;;;;;5104091;28;20027;-79
2022/05/19 07:24:34;;;;;;;3.90;2.25;;;22.70;91.30;;;;;;5091078;28;20028;-78
2022/05/19 07:27:00;;;;;;;5.40;2.20;;;22.70;91.00;;;;;;5090393;28;20036;-78
2022/05/19 07:29:27;;;;;;;3.83;2.00;;;22.70;90.90;;;;;;5092498;28;20384;-78
2022/05/19 07:31:58;;;;;;;3.78;2.10;;;22.90;90.90;;;;;;5100826;28;20028;-77
2022/05/19 07:34:24;;;;;;;4.93;2.00;;;23.00;90.60;;;;;;5111557;28;20024;-78
2022/05/19 07:36:49;;;;;;;8.20;2.10;;;23.20;90.30;;;;;;5110507;28;20073;-79
2022/05/19 07:39:15;;;;;;;5.28;2.40;;;23.40;89.20;;;;;;5112408;28;20024;-77
2022/05/19 07:41:41;;;;;;;3.35;1.80;;;23.50;88.20;;;;;;5111041;28;20055;-78
2022/05/19 07:44:08;;;;;;;4.70;2.53;;;23.60;88.00;;;;;;5110211;28;20020;-79
2022/05/19 07:46:35;;;;;;;4.70;2.08;;;23.80;91.50;;;;;;5109668;28;20384;-78
2022/05/19 07:49:01;;;;;;;6.57;2.35;;;23.90;91.50;;;;;;5089716;28;20039;-80
2022/05/19 07:51:36;;;;;;;4.85;1.83;;;24.00;91.50;;;;;;5090629;28;20028;-79
2022/05/19 07:54:07;;;;;;;4.28;2.40;;;24.10;91.30;;;;;;5101007;28;20396;-79
2022/05/19 07:56:33;;;;;;;5.15;2.25;;;24.20;91.60;;;;;;5113848;28;20020;-80
2022/05/19 07:59:00;;;;;;;7.00;2.33;;;24.30;90.80;;;;;;5113066;28;20028;-81
2022/05/19 08:01:27;;;;;;;2.90;2.20;;;24.50;89.80;;;;;;5113852;28;20060;-78
2022/05/19 08:03:52;;;;;;;4.60;2.15;;;24.60;82.00;;;;;;5115070;28;20043;-79
2022/05/19 08:06:18;;;;;;;2.63;2.00;;;24.70;82.20;;;;;;5097736;28;20064;-80
2022/05/19 08:08:44;;;;;;;3.40;2.13;;;24.80;81.70;;;;;;5106560;28;20098;-80
2022/05/19 08:11:10;;;;;;;2.92;1.95;;;24.90;81.30;;;;;;5098149;28;20274;-82
2022/05/19 08:16:21;;;;;;;4.38;2.40;;;25.20;79.90;;;;;;5093555;28;20038;-81
2022/05/19 08:18:47;;;;;;;4.00;1.95;;;25.20;79.30;;;;;;5091464;28;20373;-77
2022/05/19 08:21:13;;;;;;;3.97;2.00;;;25.30;78.80;;;;;;5091445;28;20026;-82
2022/05/19 08:23:45;;;;;;;6.90;2.33;;;25.50;78.70;;;;;;5073175;28;20020;-83
2022/05/19 08:26:11;;;;;;;6.57;2.10;;;25.60;78.50;;;;;;5102140;28;20039;-81
2022/05/19 08:28:39;;;;;;;3.30;1.92;;;25.70;78.30;;;;;;5102933;28;20020;-86
2022/05/19 08:31:06;;;;;;;11.25;2.40;;;25.90;77.80;;;;;;5103781;28;20054;-81
2022/05/19 08:33:34;;;;;;;7.53;1.98;;;26.00;76.80;;;;;;5110478;28;20035;-85
2022/05/19 08:36:00;;;;;;;4.75;2.30;;;26.10;76.40;;;;;;5101742;28;20049;-85
2022/05/19 08:38:26;;;;;;;5.75;2.33;;;26.30;76.20;;;;;;5104276;28;20445;-86
2022/05/19 08:41:09;;;;;;;5.75;2.47;;;26.30;74.80;;;;;;5114769;28;20059;-83
2022/05/19 08:43:57;;;;;;;3.00;2.30;;;26.30;73.90;;;;;;5107555;28;20027;-85
2022/05/19 08:46:35;;;;;;;2.25;2.05;;;26.40;74.50;;;;;;5106315;28;20055;-83
2022/05/19 08:49:17;;;;;;;4.55;2.58;;;26.50;74.60;;;;;;5103999;28;20048;-83
2022/05/19 08:51:49;;;;;;;2.20;1.92;;;26.60;74.30;;;;;;5104835;28;20082;-82
2022/05/19 08:54:23;;;;;;;5.63;2.40;;;26.90;74.20;;;;;;5105261;28;20502;-83
2022/05/19 08:57:11;;;;;;;2.90;2.33;;;27.00;73.20;;;;;;5106313;28;20016;-80
2022/05/19 08:59:42;;;;;;;4.25;2.45;;;27.10;71.60;;;;;;5080804;28;20068;-85
2022/05/19 09:02:13;;;;;;;3.97;2.10;;;27.20;71.20;;;;;;5098559;28;20081;-84
2022/05/19 09:04:57;;;;;;;4.70;2.28;;;27.40;71.00;;;;;;5096286;28;20028;-85
2022/05/19 09:10:28;;;;;;;3.33;2.25;;;27.60;70.70;;;;;;5096047;28;20043;-84
2022/05/19 09:13:03;;;;;;;3.92;2.17;;;27.80;70.50;;;;;;5075691;28;20062;-82
2022/05/19 09:15:29;;;;;;;3.10;1.98;;;27.90;70.20;;;;;;5094355;28;20412;-84
2022/05/19 09:17:55;;;;;;;5.53;2.15;;;27.90;70.30;;;;;;5093884;28;20110;-83
2022/05/19 09:20:28;;;;;;;3.72;2.10;;;28.10;69.80;;;;;;5108414;28;20054;-84
2022/05/19 09:23:01;;;;;;;4.05;2.25;;;28.20;69.50;;;;;;5090899;28;20084;-79
2022/05/19 09:25:26;;;;;;;3.90;2.40;;;28.40;69.20;;;;;;5106283;28;20055;-80
2022/05/19 09:27:52;;;;;;;3.92;2.40;;;28.60;70.30;;;;;;5114989;28;20028;-81
2022/05/19 09:30:49;;;;;;;2.58;2.38;;;28.70;68.90;;;;;;5106563;28;20031;-82
2022/05/19 09:33:18;;;;;;;3.88;2.10;;;28.90;68.60;;;;;;5095784;28;20023;-82
2022/05/19 09:35:55;;;;;;;4.85;3.05;;;29.00;68.80;;;;;;5095344;28;20028;-81
2022/05/19 09:38:27;;;;;;;8.45;2.58;;;29.20;68.90;;;;;;5099749;28;20028;-82
2022/05/19 09:40:59;;;;;;;5.57;3.00;;;29.30;68.40;;;;;;5096454;28;20552;-78
2022/05/19 09:43:34;;;;;;;4.85;3.20;;;29.40;68.00;;;;;;5104255;28;20111;-82
2022/05/19 09:46:15;;;;;;;5.40;3.35;;;29.50;69.20;;;;;;5091908;28;20115;-83
2022/05/19 09:48:45;;;;;;;6.50;2.35;;;29.50;68.20;;;;;;5102915;28;20469;-83
2022/05/19 09:51:15;;;;;;;5.22;2.47;;;29.40;68.70;;;;;;5099548;28;20157;-83
2022/05/19 09:54:01;;;;;;;;;;;29.40;68.50;;;;;;5104346;28;20035;-83
2022/05/19 09:56:37;;;;;;;3.47;2.40;;;29.40;69.00;;;;;;5104888;28;19908;-81
2022/05/19 09:59:13;;;;;;;2.78;2.20;;;29.50;68.40;;;;;;5104431;28;20016;-81
2022/05/19 10:01:43;;;;;;;6.55;2.80;;;29.60;68.60;;;;;;5040613;28;20130;-80
2022/05/19 10:04:43;;;;;;;2.75;2.28;;;29.70;68.50;;;;;;5040957;28;20095;-82
2022/05/19 10:07:23;;;;;;;4.60;2.88;;;29.80;67.70;;;;;;5039207;28;20152;-80
2022/05/19 10:09:51;;;;;;;9.82;2.60;;;29.90;67.30;;;;;;5038083;28;20037;-77
2022/05/19 10:12:28;;;;;;;8.15;3.00;;;30.00;66.70;;;;;;5039251;28;20049;-81
2022/05/19 10:15:11;;;;;;;4.30;2.70;;;30.00;66.70;;;;;;5045765;28;20080;-78
2022/05/19 10:17:39;;;;;;;8.75;3.10;;;30.00;67.00;;;;;;5046074;28;20037;-83
2022/05/19 10:20:20;;;;;;;7.88;3.38;;;30.10;66.40;;;;;;5040531;28;20025;-81
2022/05/19 10:23:00;;;;;;;3.33;2.50;;;30.10;66.20;;;;;;5054480;28;20060;-80
2022/05/19 10:25:52;;;;;;;8.05;2.90;;;30.10;66.80;;;;;;5039863;28;20037;-80
2022/05/19 10:31:22;;;;;;;5.28;2.60;;;30.40;66.20;;;;;;5033270;28;20088;-78
2022/05/19 10:33:57;;;;;;;7.68;3.08;;;30.40;65.60;;;;;;5090867;28;20121;-80
2022/05/19 10:36:54;;;;;;;6.82;3.38;;;30.50;65.20;;;;;;5093862;28;20156;-79
2022/05/19 10:39:36;;;;;;;5.45;3.05;;;30.60;65.60;;;;;;5101014;28;20032;-81
2022/05/19 10:42:25;;;;;;;5.53;2.40;;;30.60;65.40;;;;;;5100544;28;20137;-79
2022/05/19 10:44:56;;;;;;;6.03;3.00;;;30.60;65.30;;;;;;5101823;28;20110;-77
2022/05/19 10:47:40;;;;;;;5.72;3.05;;;30.70;64.90;;;;;;5099181;28;20028;-78
2022/05/19 10:50:36;;;;;;;7.10;2.72;;;30.60;65.50;;;;;;5095067;28;20071;-83
2022/05/19 10:53:31;;;;;;;5.05;3.05;;;30.60;65.10;;;;;;5086635;28;20028;-81
2022/05/19 10:56:17;;;;;;;9.00;3.67;;;30.70;65.80;;;;;;5099799;28;20116;-79
2022/05/19 10:59:02;;;;;;;6.85;2.78;;;30.60;64.90;;;;;;5104740;28;20357;-82
2022/05/19 11:01:32;;;;;;;7.57;3.13;;;30.60;64.70;;;;;;5109930;28;20483;-73
2022/05/19 11:04:35;;;;;;;7.57;3.30;;;30.60;64.50;;;;;;5110370;28;20062;-74
2022/05/19 11:07:12;;;;;;;7.40;3.10;;;30.70;65.00;;;;;;5098647;28;20085;-74
2022/05/19 11:09:53;;;;;;;4.38;3.25;;;30.80;64.70;;;;;;5090950;28;20032;-72
2022/05/19 11:12:56;;;;;;;6.32;2.80;;;31.20;63.60;;;;;;5090355;28;20125;-72
2022/05/19 11:15:21;;;;;;;5.20;3.30;;;31.20;64.00;;;;;;5090649;28;20024;-74
2022/05/19 11:18:03;;;;;;;8.73;2.97;;;31.50;62.90;;;;;;5091790;28;20388;-74
2022/05/19 11:20:31;;;;;;;7.60;3.47;;;31.70;62.90;;;;;;5093343;28;20501;-75
2022/05/19 11:23:26;;;;;;;4.88;3.20;;;31.90;63.30;;;;;;5092763;28;20032;-73
2022/05/19 11:26:24;;;;;;;5.90;3.00;;;32.10;61.80;;;;;;5091621;28;20063;-74
2022/05/19 11:29:17;;;;;;;3.35;3.00;;;32.20;61.20;;;;;;5094388;28;20040;-74
2022/05/19 11:31:49;;;;;;;3.35;2.83;;;32.40;60.80;;;;;;5092724;28;20054;-74
2022/05/19 11:34:52;;;;;;;6.03;2.53;;;32.40;60.50;;;;;;5091763;28;20028;-74
2022/05/19 11:37:41;;;;;;;8.05;2.90;;;32.40;61.30;;;;;;5066313;28;20078;-74
2022/05/19 11:40:15;;;;;;;5.93;3.35;;;32.50;61.30;;;;;;5097227;28;20066;-74
2022/05/19 11:42:54;;;;;;;6.20;2.85;;;32.70;60.20;;;;;;5101056;28;20151;-74
2022/05/19 11:45:43;;;;;;;8.55;3.10;;;32.90;59.80;;;;;;5101365;28;20042;-73
2022/05/19 11:57:31;;;;;;;8.43;3.55;;;33.30;59.30;;;;;;5075405;28;20058;-75
2022/05/19 12:00:00;;;;;;;10.43;3.50;;;33.40;59.10;;;;;;5110210;28;20016;-75
2022/05/19 12:02:55;;;;;;;5.22;3.00;;;33.60;58.80;;;;;;5110630;28;20062;-76
2022/05/19 12:05:35;;;;;;;4.47;3.17;;;33.60;58.30;;;;;;5089301;28;20047;-73
2022/05/19 12:08:28;;;;;;;8.13;3.60;;;33.40;58.00;;;;;;5089874;28;20036;-74
2022/05/19 12:11:12;;;;;;;7.40;3.38;;;33.40;58.50;;;;;;5090121;28;20032;-74
2022/05/19 12:13:39;;;;;;;8.32;3.15;;;33.50;58.20;;;;;;5073448;28;20036;-75
2022/05/19 12:16:10;;;;;;;6.75;3.08;;;33.60;58.10;;;;;;5097219;28;20148;-75
2022/05/19 12:18:44;;;;;;;6.35;2.80;;;33.70;57.80;;;;;;5114274;28;20499;-74
2022/05/19 12:21:31;;;;;;;10.63;3.78;;;33.80;57.40;;;;;;5114235;28;20019;-75
2022/05/19 12:24:02;;;;;;;6.28;3.45;;;33.70;57.60;;;;;;5105823;28;20111;-75
2022/05/19 12:26:44;;;;;;;4.03;3.08;;;33.50;57.30;;;;;;5095725;28;20392;-74
2022/05/19 12:29:27;;;;;;;8.32;3.30;;;33.40;57.50;;;;;;5093590;28;20032;-74
2022/05/19 12:31:56;;;;;;;5.72;3.25;;;33.20;57.50;;;;;;5094476;28;20020;-74
2022/05/19 12:34:27;;;;;;;5.53;2.42;;;33.20;59.30;;;;;;5096519;28;20514;-75
2022/05/19 12:37:13;;;;;;;6.20;2.92;;;33.40;58.80;;;;;;5114672;28;20073;-74
2022/05/19 12:39:50;;;;;;;5.65;3.28;;;33.40;57.60;;;;;;5091298;28;20063;-74
2022/05/19 12:42:33;;;;;;;4.95;3.20;;;33.40;58.00;;;;;;5072889;28;20071;-76
2022/05/19 12:44:59;;;;;;;3.97;2.72;;;33.10;57.40;;;;;;5072396;28;20110;-75
2022/05/19 12:47:32;;;;;;;5.40;2.88;;;32.80;57.70;;;;;;5076349;28;20731;-75
2022/05/19 12:50:01;;;;;;;6.22;3.40;;;32.80;58.80;;;;;;5073035;28;20033;-76
2022/05/19 12:53:08;;;;;;;4.03;2.90;;;32.90;57.90;;;;;;5073930;28;20073;-76
2022/05/19 12:55:37;;;;;;;3.95;3.05;;;33.10;57.70;;;;;;4971618;28;20034;-75
2022/05/19 12:58:34;;;;;;;4.20;3.05;;;33.30;57.10;;;;;;5057464;28;20032;-75
2022/05/19 13:01:29;;;;;;;9.00;3.40;;;33.70;56.90;;;;;;5077166;28;20591;-75
2022/05/19 13:04:08;;;;;;;3.28;2.58;;;;;;;;;;5064034;28;20028;-75
2022/05/19 13:06:35;;;;;;;3.58;3.28;;;;;;;;;;5083160;28;20114;-75
2022/05/19 13:09:03;;;;;;;11.88;3.15;;;;;;;;;;5080868;28;20103;-75
2022/05/19 13:11:34;;;;;;;4.60;2.92;;;;;;;;;;5080824;28;20029;-74
2022/05/19 13:14:07;;;;;;;7.80;3.10;;;;;;;;;;5082457;28;20028;-75
2022/05/19 13:16:37;;;;;;;7.68;3.45;;;;;;;;;;5083186;28;20086;-74
2022/05/19 13:19:13;;;;;;;5.35;3.47;;;;;;;;;;5081919;28;20415;-74
2022/05/19 13:21:45;;;;;;;8.90;3.60;;;;;;;;;;5083899;28;20031;-74
2022/05/19 13:24:12;;;;;;;5.93;3.05;;;;;;;;;;5083430;28;20566;-75
2022/05/19 13:26:40;;;;;;;4.80;3.83;;;;;;;;;;5082603;28;20028;-75
2022/05/19 13:32:00;;;;;;;6.28;3.70;;;;;;;;;;5082647;28;20032;-76
2022/05/19 13:34:27;;;;;;;5.63;3.45;;;;;;;;;;5079920;28;20032;-75
2022/05/19 13:36:56;;;;;;;6.22;3.33;;;;;;;;;;5082229;28;20021;-75
2022/05/19 13:39:22;;;;;;;8.27;3.40;;;;;;;;;;5080409;28;20021;-76
2022/05/19 13:41:52;;;;;;;4.63;3.17;;;;;;;;;;5099848;28;20047;-75